CA-0291 weather

CLOSED Port Albert Airport
Ontario, Canada

Public forecast

Using degrees Celsius for public forecast. Weather courtesy of forecast.io.

Closest aviation weather report (METAR) to Port Albert Airport

Closest report is Huron County Memorial Airport, 56.0 nm (103.7 km) W. Retrieved 2019/10/19 18:38 UTC (0 seconds ago):

KBAX 191838Z AUTO 17011KT 10SM CLR 15/06 A2989 RMK AO2 T01460062

Closest aviation forecast (TAF) to Port Albert Airport

Closest forecast is London Airport, 56.2 nm (104.1 km) SSE. Retrieved 2019/10/19 18:39 UTC (0 seconds ago):

TAF CYXU 191738Z 1918/2018 15010KT P6SM FEW025 SCT220 BECMG 1922/1924 10008KT FM200600 10006KT P6SM SCT260 FM201600 19008KT P6SM BKN090 RMK NXT FCST BY 200000Z